Time;durP1;ratioP1;P1;durP2;ratioP2;P2;SDS_P1;SDS_P2;PMS_P1;PMS_P2;Temp;Humidity;BMP_temperature;BMP_pressure;BME280_temperature;BME280_humidity;BME280_pressure;Samples;Min_cycle;Max_cycle;Signal;HPM_P1;HPM_P2
2023/02/04 00:01:24;;;;;;;28.63;7.60;;;7.00;99.90;;;;;;5008298;28;20081;-80
2023/02/04 00:03:51;;;;;;;32.75;7.63;;;7.00;99.90;;;;;;4984322;28;20416;-80
2023/02/04 00:06:19;;;;;;;48.33;9.82;;;7.00;99.90;;;;;;5004408;28;20040;-75
2023/02/04 00:08:45;;;;;;;38.47;8.75;;;7.00;99.90;;;;;;5000639;28;20394;-81
2023/02/04 00:11:11;;;;;;;36.95;8.55;;;7.00;99.90;;;;;;5019382;28;20045;-79
2023/02/04 00:13:37;;;;;;;41.28;8.93;;;7.00;99.90;;;;;;5004724;28;20940;-79
2023/02/04 00:16:03;;;;;;;34.97;8.35;;;7.00;99.90;;;;;;5016566;28;20071;-78
2023/02/04 00:18:29;;;;;;;44.60;7.93;;;7.00;99.90;;;;;;4988106;28;20053;-80
2023/02/04 00:20:54;;;;;;;37.17;7.72;;;7.00;99.90;;;;;;5000734;28;20052;-80
2023/02/04 00:23:20;;;;;;;41.60;9.63;;;7.00;99.90;;;;;;5019824;28;20060;-80
2023/02/04 00:25:46;;;;;;;45.70;9.48;;;7.00;99.90;;;;;;5001652;28;20091;-80
2023/02/04 00:28:12;;;;;;;39.58;9.25;;;7.00;99.90;;;;;;4988843;28;20045;-79
2023/02/04 00:30:38;;;;;;;41.15;8.20;;;7.00;99.90;;;;;;5017664;28;20063;-80
2023/02/04 00:33:03;;;;;;;37.03;8.15;;;7.00;99.90;;;;;;5003992;28;20049;-80
2023/02/04 00:35:29;;;;;;;42.95;9.15;;;7.00;99.90;;;;;;4987977;28;20045;-80
2023/02/04 00:37:55;;;;;;;44.60;9.02;;;7.00;99.90;;;;;;5002589;28;20119;-80
2023/02/04 00:40:21;;;;;;;40.25;8.60;;;7.00;99.90;;;;;;5037301;28;20073;-74
2023/02/04 00:42:46;;;;;;;34.55;7.78;;;7.00;99.90;;;;;;5002734;28;20214;-75
2023/02/04 00:45:12;;;;;;;44.78;8.98;;;7.00;99.90;;;;;;5021503;28;20483;-74
2023/02/04 00:47:38;;;;;;;40.67;8.45;;;7.00;99.90;;;;;;5021613;28;20508;-74
2023/02/04 00:50:04;;;;;;;41.70;8.20;;;7.00;99.90;;;;;;4991185;28;20043;-79
2023/02/04 00:52:30;;;;;;;35.35;8.18;;;7.00;99.90;;;;;;5021606;28;20141;-79
2023/02/04 00:54:56;;;;;;;40.45;9.52;;;7.00;99.90;;;;;;5008554;28;20052;-79
2023/02/04 00:57:22;;;;;;;35.22;8.35;;;7.00;99.90;;;;;;5007595;28;20052;-79
2023/02/04 00:59:50;;;;;;;43.65;9.10;;;7.00;99.90;;;;;;5022417;28;20084;-80
2023/02/04 01:02:16;;;;;;;39.42;9.15;;;7.00;99.90;;;;;;5020936;28;20128;-80
2023/02/04 01:04:42;;;;;;;46.03;9.65;;;7.00;99.90;;;;;;5003749;28;20046;-80
2023/02/04 01:07:08;;;;;;;41.78;9.20;;;7.10;99.90;;;;;;5006128;28;20056;-80
2023/02/04 01:09:33;;;;;;;40.67;9.10;;;7.00;99.90;;;;;;4989790;28;20052;-80
2023/02/04 01:11:59;;;;;;;41.25;8.00;;;7.00;99.90;;;;;;5005577;28;20239;-80
2023/02/04 01:14:25;;;;;;;40.35;7.97;;;7.00;99.90;;;;;;5006667;28;20044;-80
2023/02/04 01:16:51;;;;;;;45.15;8.45;;;7.00;99.90;;;;;;4974210;28;20037;-79
2023/02/04 01:19:17;;;;;;;47.95;8.90;;;7.00;99.90;;;;;;5024412;28;20044;-80
2023/02/04 01:21:43;;;;;;;41.60;8.50;;;7.00;99.90;;;;;;5005068;28;20436;-80
2023/02/04 01:24:08;;;;;;;45.47;9.15;;;7.00;99.90;;;;;;5003529;28;20653;-79
2023/02/04 01:26:34;;;;;;;40.45;9.10;;;7.00;99.90;;;;;;5023928;28;20086;-81
2023/02/04 01:29:00;;;;;;;39.38;8.43;;;7.00;99.90;;;;;;4987719;28;20111;-79
2023/02/04 01:31:27;;;;;;;44.95;8.77;;;7.00;99.90;;;;;;5017890;28;20088;-79
2023/02/04 01:33:56;;;;;;;47.40;8.63;;;7.00;99.90;;;;;;4993315;28;20083;-79
2023/02/04 01:36:22;;;;;;;36.53;7.68;;;7.00;99.90;;;;;;5022023;28;20052;-80
2023/02/04 01:38:51;;;;;;;40.47;9.02;;;7.00;99.90;;;;;;4987074;28;20060;-80
2023/02/04 01:41:17;;;;;;;39.45;8.35;;;7.00;99.90;;;;;;5005633;28;20068;-78
2023/02/04 01:43:44;;;;;;;41.28;8.00;;;6.90;99.90;;;;;;4992440;28;20390;-79
2023/02/04 01:46:12;;;;;;;42.17;9.98;;;7.00;99.90;;;;;;5021866;28;20048;-79
2023/02/04 01:48:41;;;;;;;45.47;10.77;;;7.00;99.90;;;;;;4991508;28;20128;-79
2023/02/04 01:51:11;;;;;;;46.22;9.48;;;6.90;99.90;;;;;;5020193;28;20553;-80
2023/02/04 01:53:38;;;;;;;41.22;8.75;;;7.00;99.90;;;;;;5006030;28;20048;-80
2023/02/04 01:56:22;;;;;;;37.95;8.43;;;7.00;99.90;;;;;;5020640;28;20056;-79
2023/02/04 01:58:49;;;;;;;39.67;8.80;;;7.00;99.90;;;;;;5005118;28;20045;-79
2023/02/04 02:01:41;;;;;;;49.42;8.93;;;7.00;99.90;;;;;;5006044;28;20159;-79
2023/02/04 02:04:09;;;;;;;41.08;9.35;;;7.00;99.90;;;;;;5004379;28;20049;-79
2023/02/04 02:06:36;;;;;;;44.85;9.88;;;7.00;99.90;;;;;;4983105;28;20065;-79
2023/02/04 02:09:03;;;;;;;44.22;8.88;;;7.00;99.90;;;;;;4989686;28;20561;-80
2023/02/04 02:11:29;;;;;;;36.17;8.93;;;7.00;99.90;;;;;;5007223;28;20571;-80
2023/02/04 02:13:56;;;;;;;40.55;9.23;;;7.00;99.90;;;;;;5003735;28;20051;-80
2023/02/04 02:16:22;;;;;;;46.40;9.15;;;7.10;99.90;;;;;;5001053;28;20045;-80
2023/02/04 02:18:48;;;;;;;48.35;9.57;;;7.10;99.90;;;;;;5011390;28;21071;-80
2023/02/04 02:21:20;;;;;;;45.58;8.80;;;7.10;99.90;;;;;;5014320;28;20052;-80
2023/02/04 02:23:51;;;;;;;56.92;9.93;;;7.10;99.90;;;;;;5017408;28;20080;-80
2023/02/04 02:26:23;;;;;;;46.78;9.57;;;7.00;99.90;;;;;;5026150;28;20045;-80
2023/02/04 02:28:50;;;;;;;47.15;9.48;;;7.00;99.90;;;;;;4980573;28;20034;-80
2023/02/04 02:31:19;;;;;;;46.17;9.20;;;7.00;99.90;;;;;;4987138;28;21028;-79
2023/02/04 02:33:45;;;;;;;38.78;8.75;;;7.00;99.90;;;;;;5002674;28;20092;-80
2023/02/04 02:36:11;;;;;;;46.35;8.93;;;7.00;99.90;;;;;;4980771;28;20127;-80
2023/02/04 02:38:38;;;;;;;46.22;8.65;;;7.00;99.90;;;;;;5013412;28;20045;-80
2023/02/04 02:41:07;;;;;;;48.92;8.55;;;7.00;99.90;;;;;;5013272;28;20037;-80
2023/02/04 02:43:35;;;;;;;52.35;9.43;;;7.00;99.90;;;;;;4997350;28;20049;-81
2023/02/04 02:46:04;;;;;;;36.63;8.50;;;7.00;99.90;;;;;;5013763;28;20079;-80
2023/02/04 02:48:30;;;;;;;42.63;8.65;;;6.90;99.90;;;;;;4996499;28;20032;-80
2023/02/04 02:50:56;;;;;;;51.42;9.18;;;6.90;99.90;;;;;;4980595;28;20051;-80
2023/02/04 02:53:24;;;;;;;48.22;8.52;;;6.90;99.90;;;;;;5004823;28;20052;-80
2023/02/04 02:55:50;;;;;;;47.00;9.40;;;6.90;99.90;;;;;;4995915;28;20053;-80
2023/02/04 02:58:27;;;;;;;42.20;7.70;;;6.90;99.90;;;;;;5007392;28;20045;-80
2023/02/04 03:00:54;;;;;;;48.22;9.10;;;6.90;99.90;;;;;;5009068;28;20061;-80
2023/02/04 03:03:30;;;;;;;43.95;9.18;;;6.90;99.90;;;;;;5009400;28;20060;-81
2023/02/04 03:06:19;;;;;;;42.92;8.13;;;6.90;99.90;;;;;;4990949;28;20049;-80
2023/02/04 03:08:47;;;;;;;49.25;9.80;;;6.90;99.90;;;;;;5013539;28;20041;-81
2023/02/04 03:11:12;;;;;;;51.50;8.68;;;6.90;99.90;;;;;;4999296;28;20115;-81
2023/02/04 03:13:39;;;;;;;52.42;8.73;;;6.90;99.90;;;;;;4992895;28;20189;-80
2023/02/04 03:16:06;;;;;;;48.72;9.25;;;6.90;99.90;;;;;;4995196;28;21004;-80
2023/02/04 03:18:34;;;;;;;50.03;9.15;;;6.90;99.90;;;;;;5012678;28;20060;-81
2023/02/04 03:21:01;;;;;;;48.10;9.13;;;6.80;99.90;;;;;;5013487;28;20140;-80
2023/02/04 03:23:27;;;;;;;42.67;8.60;;;6.90;99.90;;;;;;4993858;28;20144;-80
2023/02/04 03:25:55;;;;;;;38.95;8.95;;;6.90;99.90;;;;;;5019783;28;20057;-81
2023/02/04 03:28:21;;;;;;;43.35;8.68;;;6.90;99.90;;;;;;5013114;28;20052;-80
2023/02/04 03:30:52;;;;;;;48.30;8.32;;;6.90;99.90;;;;;;5002676;28;20045;-81
2023/02/04 03:33:18;;;;;;;39.85;8.25;;;6.90;99.90;;;;;;5009933;28;20049;-81
2023/02/04 03:35:44;;;;;;;42.38;8.70;;;6.90;99.90;;;;;;4999306;28;20122;-81
2023/02/04 03:38:10;;;;;;;44.88;9.07;;;6.90;99.90;;;;;;4987669;28;20064;-81
2023/02/04 03:40:35;;;;;;;45.53;8.52;;;6.90;99.90;;;;;;4997504;28;20037;-81
2023/02/04 03:43:01;;;;;;;41.88;8.02;;;6.90;99.90;;;;;;5011519;28;20053;-81
2023/02/04 03:45:27;;;;;;;48.40;10.10;;;6.90;99.90;;;;;;4981377;28;20057;-81
2023/02/04 03:47:56;;;;;;;41.33;8.65;;;6.80;99.90;;;;;;5017225;28;20044;-80
2023/02/04 03:50:21;;;;;;;45.25;9.10;;;6.80;99.90;;;;;;4991873;28;20077;-81
2023/02/04 03:52:48;;;;;;;45.22;8.65;;;6.80;99.90;;;;;;4992651;28;20137;-80
2023/02/04 03:55:14;;;;;;;47.80;9.40;;;6.80;99.90;;;;;;5012079;28;20053;-80
2023/02/04 03:57:40;;;;;;;42.72;8.63;;;6.80;99.90;;;;;;4983726;28;20106;-80
2023/02/04 04:00:07;;;;;;;47.75;8.45;;;6.80;99.90;;;;;;5001089;28;20090;-80
2023/02/04 04:02:32;;;;;;;45.03;9.80;;;6.80;99.90;;;;;;5014782;28;20063;-80
2023/02/04 04:04:58;;;;;;;42.20;7.65;;;6.80;99.90;;;;;;4999100;28;20500;-80
2023/02/04 04:07:24;;;;;;;40.08;8.32;;;6.80;99.90;;;;;;4998985;28;20768;-81
2023/02/04 04:09:50;;;;;;;45.55;8.43;;;6.80;99.90;;;;;;4998035;28;20033;-80
2023/02/04 04:12:15;;;;;;;39.47;7.72;;;6.90;99.90;;;;;;4994423;28;20041;-81
2023/02/04 04:14:41;;;;;;;45.58;9.35;;;6.80;99.90;;;;;;5002220;28;20080;-81
2023/02/04 04:17:07;;;;;;;42.50;7.80;;;6.80;99.90;;;;;;4995468;28;20048;-80
2023/02/04 04:19:33;;;;;;;46.40;9.75;;;6.90;99.90;;;;;;5003141;28;20045;-81
2023/02/04 04:21:58;;;;;;;39.47;8.90;;;6.90;99.90;;;;;;5011338;28;20054;-81
2023/02/04 04:24:24;;;;;;;46.97;7.85;;;6.90;99.90;;;;;;4999459;28;20044;-81
2023/02/04 04:26:50;;;;;;;42.17;8.45;;;6.80;99.90;;;;;;5026450;28;20051;-81
2023/02/04 04:29:16;;;;;;;46.53;8.10;;;6.80;99.90;;;;;;4986503;28;20438;-81
2023/02/04 04:31:42;;;;;;;47.53;9.02;;;6.80;99.90;;;;;;5001765;28;20523;-81
2023/02/04 04:34:07;;;;;;;45.53;8.95;;;6.80;99.90;;;;;;5020340;28;20095;-80
2023/02/04 04:36:33;;;;;;;44.00;8.65;;;6.80;99.90;;;;;;5037403;28;20049;-80
2023/02/04 04:38:59;;;;;;;46.78;8.57;;;6.80;99.90;;;;;;4998516;28;20046;-81
2023/02/04 04:41:28;;;;;;;45.28;9.95;;;6.80;99.90;;;;;;5003707;28;20076;-82
2023/02/04 04:43:53;;;;;;;45.63;8.10;;;6.80;99.90;;;;;;4993915;28;20046;-81
2023/02/04 04:46:19;;;;;;;46.00;8.48;;;6.80;99.90;;;;;;4996982;28;20084;-81
2023/02/04 04:48:45;;;;;;;40.85;7.63;;;6.80;99.90;;;;;;5002726;28;20084;-80
2023/02/04 04:51:11;;;;;;;42.13;8.73;;;6.70;99.90;;;;;;5009554;28;20037;-79
2023/02/04 04:53:37;;;;;;;34.78;8.13;;;6.80;99.90;;;;;;5009370;28;20041;-80
2023/02/04 04:56:03;;;;;;;50.92;9.30;;;6.70;99.90;;;;;;5001894;28;20049;-81
2023/02/04 04:58:32;;;;;;;52.67;9.75;;;6.80;99.90;;;;;;4979116;28;20132;-80
2023/02/04 05:00:57;;;;;;;43.00;8.95;;;6.80;99.90;;;;;;5000586;28;20044;-81
2023/02/04 05:03:23;;;;;;;47.20;8.85;;;6.70;99.90;;;;;;4994915;28;20458;-80
2023/02/04 05:05:49;;;;;;;43.45;9.48;;;6.70;99.90;;;;;;5017861;28;20057;-80
2023/02/04 05:08:15;;;;;;;48.33;10.43;;;6.70;99.90;;;;;;5019334;28;20546;-80
2023/02/04 05:10:42;;;;;;;49.08;9.07;;;6.70;99.90;;;;;;5009353;28;20456;-80
2023/02/04 05:13:08;;;;;;;45.72;9.45;;;6.70;99.90;;;;;;5008993;28;20132;-80
2023/02/04 05:15:34;;;;;;;38.72;9.65;;;6.70;99.90;;;;;;5011357;28;20046;-80
2023/02/04 05:18:00;;;;;;;39.20;8.65;;;6.70;99.90;;;;;;5026208;28;20095;-80
2023/02/04 05:20:26;;;;;;;49.47;9.70;;;6.70;99.90;;;;;;4989586;28;20079;-80
2023/02/04 05:22:55;;;;;;;46.78;8.52;;;6.60;99.90;;;;;;5019201;28;20049;-81
2023/02/04 05:25:25;;;;;;;46.20;9.98;;;6.60;99.90;;;;;;5007968;28;20543;-80
2023/02/04 05:27:50;;;;;;;41.05;7.82;;;6.60;99.90;;;;;;5011273;28;20053;-80
2023/02/04 05:30:16;;;;;;;47.10;9.02;;;6.60;99.90;;;;;;5020647;28;20048;-80
2023/02/04 05:32:42;;;;;;;43.17;9.32;;;6.60;99.90;;;;;;5002781;28;20044;-81
2023/02/04 05:35:08;;;;;;;46.83;8.82;;;6.60;99.90;;;;;;5004794;28;20053;-80
2023/02/04 05:37:34;;;;;;;49.10;8.77;;;6.60;99.90;;;;;;5014479;28;20076;-80
2023/02/04 05:40:00;;;;;;;45.00;8.00;;;6.60;99.90;;;;;;5034915;28;20080;-80
2023/02/04 05:42:25;;;;;;;52.05;9.48;;;6.60;99.90;;;;;;5023760;28;20057;-80
2023/02/04 05:44:51;;;;;;;46.80;8.82;;;6.60;99.90;;;;;;4994956;28;20049;-80
2023/02/04 05:47:19;;;;;;;46.28;9.40;;;6.50;99.90;;;;;;5005957;28;20056;-80
2023/02/04 05:49:45;;;;;;;50.53;9.48;;;6.50;99.90;;;;;;5002229;28;20657;-80
2023/02/04 05:52:11;;;;;;;49.83;8.90;;;6.50;99.90;;;;;;5011147;28;20052;-80
2023/02/04 05:54:37;;;;;;;37.13;8.07;;;6.50;99.90;;;;;;5005196;28;20079;-80
2023/02/04 05:57:03;;;;;;;49.83;9.05;;;6.50;99.90;;;;;;5022496;28;20073;-80
2023/02/04 05:59:29;;;;;;;42.45;8.25;;;6.50;99.90;;;;;;4996240;28;21267;-74
2023/02/04 06:01:55;;;;;;;45.35;8.68;;;6.50;99.90;;;;;;4993668;28;20124;-73
2023/02/04 06:04:21;;;;;;;40.75;8.45;;;6.50;99.90;;;;;;5003743;28;20129;-74
2023/02/04 06:06:46;;;;;;;40.30;7.70;;;6.40;99.90;;;;;;4986164;28;20140;-74
2023/02/04 06:09:12;;;;;;;31.65;6.13;;;6.40;99.90;;;;;;5016929;28;20491;-80
2023/02/04 06:11:38;;;;;;;37.20;7.88;;;6.40;99.90;;;;;;4993008;28;20392;-81
2023/02/04 06:14:04;;;;;;;36.70;7.75;;;6.40;99.90;;;;;;5019800;28;20033;-80
2023/02/04 06:16:30;;;;;;;46.25;9.32;;;6.40;99.90;;;;;;4990855;28;20510;-80
2023/02/04 06:18:56;;;;;;;40.08;8.65;;;6.40;99.90;;;;;;4999295;28;20041;-80
2023/02/04 06:21:21;;;;;;;43.17;7.88;;;6.30;99.90;;;;;;5020841;28;20049;-80
2023/02/04 06:23:47;;;;;;;38.95;8.80;;;6.30;99.90;;;;;;5017059;28;20444;-80
2023/02/04 06:26:13;;;;;;;33.97;7.07;;;6.30;99.90;;;;;;4991464;28;20053;-80
2023/02/04 06:28:42;;;;;;;31.67;6.78;;;6.30;99.90;;;;;;5017536;28;20040;-80
2023/02/04 06:31:07;;;;;;;33.90;7.18;;;6.30;99.90;;;;;;5008751;28;20045;-81
2023/02/04 06:33:35;;;;;;;37.72;7.00;;;6.20;99.90;;;;;;5025894;28;20389;-80
2023/02/04 06:36:10;;;;;;;41.72;7.25;;;6.20;99.90;;;;;;5012638;28;20095;-83
2023/02/04 06:38:36;;;;;;;35.22;7.38;;;6.20;99.90;;;;;;5034324;28;20633;-81
2023/02/04 06:41:02;;;;;;;39.42;8.07;;;6.20;99.90;;;;;;5005106;28;20048;-81
2023/02/04 06:43:28;;;;;;;35.25;7.03;;;6.20;99.90;;;;;;5012500;28;20380;-81
2023/02/04 06:45:54;;;;;;;30.77;6.30;;;6.20;99.90;;;;;;5009261;28;20049;-81
2023/02/04 06:48:19;;;;;;;38.05;7.57;;;6.20;99.90;;;;;;5016437;28;20041;-82
2023/02/04 06:50:45;;;;;;;31.80;6.72;;;6.10;99.90;;;;;;5009426;28;20118;-81
2023/02/04 06:53:11;;;;;;;35.92;6.93;;;6.10;99.90;;;;;;5004405;28;20080;-81
2023/02/04 06:55:37;;;;;;;31.02;7.03;;;6.10;99.90;;;;;;5005050;28;20099;-81
2023/02/04 06:58:03;;;;;;;35.88;7.60;;;6.10;99.90;;;;;;4984577;28;20053;-81
2023/02/04 07:00:30;;;;;;;36.58;7.63;;;6.00;99.90;;;;;;5005020;28;20052;-81
2023/02/04 07:02:57;;;;;;;27.10;6.40;;;6.00;99.90;;;;;;5018968;28;20128;-81
2023/02/04 07:05:23;;;;;;;33.45;6.80;;;6.00;99.90;;;;;;5009157;28;20076;-81
2023/02/04 07:07:49;;;;;;;29.35;6.97;;;6.00;99.90;;;;;;4999989;28;20056;-81
2023/02/04 07:10:16;;;;;;;26.58;6.22;;;6.00;99.90;;;;;;5032901;28;20574;-81
2023/02/04 07:12:42;;;;;;;29.45;6.35;;;5.90;99.90;;;;;;5008093;28;20488;-81
2023/02/04 07:15:09;;;;;;;26.70;5.68;;;5.90;99.90;;;;;;4993907;28;20031;-81
2023/02/04 07:17:34;;;;;;;32.38;6.72;;;5.90;99.90;;;;;;5006915;28;20050;-81
2023/02/04 07:20:00;;;;;;;31.88;7.00;;;5.90;99.90;;;;;;5006311;28;20171;-81
2023/02/04 07:22:26;;;;;;;32.13;6.47;;;5.90;99.90;;;;;;4977406;28;20510;-81
2023/02/04 07:24:52;;;;;;;24.58;5.32;;;5.80;99.90;;;;;;4991795;28;20045;-81
2023/02/04 07:27:18;;;;;;;30.67;5.88;;;5.90;99.90;;;;;;4997128;28;20535;-81
2023/02/04 07:29:44;;;;;;;32.15;6.07;;;5.80;99.90;;;;;;5009732;28;20103;-81
2023/02/04 07:32:09;;;;;;;32.05;7.40;;;5.80;99.90;;;;;;5006440;28;20044;-82
2023/02/04 07:34:38;;;;;;;28.13;5.53;;;5.80;99.90;;;;;;5023102;28;20047;-81
2023/02/04 07:37:04;;;;;;;27.63;6.30;;;5.80;99.90;;;;;;5015086;28;20080;-81
2023/02/04 07:39:30;;;;;;;27.27;6.03;;;5.80;99.90;;;;;;5004664;28;20476;-81
2023/02/04 07:41:56;;;;;;;27.23;6.22;;;5.80;99.90;;;;;;5002175;28;20151;-81
2023/02/04 07:44:21;;;;;;;25.63;5.65;;;5.80;99.90;;;;;;5005258;28;20129;-81
2023/02/04 07:46:50;;;;;;;29.52;5.85;;;5.80;99.90;;;;;;5013740;28;20068;-80
2023/02/04 07:49:15;;;;;;;27.77;5.55;;;5.80;99.90;;;;;;5015453;28;20129;-81
2023/02/04 07:51:41;;;;;;;34.03;6.28;;;5.80;99.90;;;;;;5012072;28;20057;-81
2023/02/04 07:54:08;;;;;;;30.25;6.55;;;5.80;99.90;;;;;;5029609;28;20526;-81
2023/02/04 07:56:34;;;;;;;23.35;5.15;;;5.80;99.90;;;;;;5012622;28;20053;-81
2023/02/04 07:58:59;;;;;;;25.58;5.72;;;5.90;99.90;;;;;;5016368;28;20577;-81
2023/02/04 08:01:25;;;;;;;25.33;5.80;;;5.80;99.90;;;;;;5033946;28;20396;-81
2023/02/04 08:03:51;;;;;;;26.40;5.18;;;5.90;99.90;;;;;;4994045;28;20079;-81
2023/02/04 08:06:17;;;;;;;22.42;4.93;;;5.90;99.90;;;;;;4993007;28;20064;-82
2023/02/04 08:08:43;;;;;;;22.45;4.60;;;5.90;99.90;;;;;;5004544;28;20328;-83
2023/02/04 08:11:09;;;;;;;23.05;4.95;;;5.90;99.90;;;;;;4996604;28;20060;-82
2023/02/04 08:13:34;;;;;;;19.27;4.25;;;5.90;99.90;;;;;;5010498;28;20152;-81
2023/02/04 08:16:00;;;;;;;19.13;4.10;;;5.90;99.90;;;;;;5000434;28;20424;-80
2023/02/04 08:18:26;;;;;;;16.10;3.33;;;5.90;99.90;;;;;;5010309;28;20045;-82
2023/02/04 08:20:52;;;;;;;16.83;3.90;;;5.90;99.90;;;;;;5000621;28;20041;-80
2023/02/04 08:23:18;;;;;;;22.27;4.45;;;5.90;99.90;;;;;;4984598;28;20079;-80
2023/02/04 08:25:44;;;;;;;22.38;4.10;;;6.00;99.90;;;;;;4972508;28;20103;-81
2023/02/04 08:28:10;;;;;;;23.52;4.40;;;6.00;99.90;;;;;;4976678;28;20056;-83
2023/02/04 08:30:36;;;;;;;15.45;3.30;;;6.00;99.90;;;;;;4991819;28;20045;-84
2023/02/04 08:33:02;;;;;;;19.52;4.00;;;6.00;99.90;;;;;;5016200;28;20170;-84
2023/02/04 08:35:28;;;;;;;20.15;3.90;;;6.00;99.90;;;;;;5035464;28;20099;-83
2023/02/04 08:37:54;;;;;;;17.27;3.70;;;6.00;99.90;;;;;;4985725;28;20547;-83
2023/02/04 08:40:19;;;;;;;21.25;4.38;;;6.00;99.90;;;;;;4978322;28;20049;-82
2023/02/04 08:42:45;;;;;;;16.25;3.20;;;6.10;99.90;;;;;;5006408;28;20065;-84
2023/02/04 08:45:11;;;;;;;20.00;3.65;;;6.10;99.90;;;;;;4998448;28;20044;-80
2023/02/04 08:47:37;;;;;;;17.23;3.38;;;6.00;99.90;;;;;;5015121;28;20049;-82
2023/02/04 08:50:03;;;;;;;12.55;3.45;;;6.10;99.90;;;;;;4987707;28;20278;-80
2023/02/04 08:52:29;;;;;;;15.98;3.75;;;6.10;99.90;;;;;;5002939;28;20037;-81
2023/02/04 08:54:55;;;;;;;19.42;3.60;;;6.10;99.90;;;;;;4965898;28;20098;-81
2023/02/04 08:57:20;;;;;;;13.65;3.47;;;6.10;99.90;;;;;;5000080;28;20084;-81
2023/02/04 08:59:46;;;;;;;16.15;3.33;;;6.20;99.90;;;;;;5004085;28;20052;-82
2023/02/04 09:02:12;;;;;;;14.57;3.40;;;6.10;99.90;;;;;;4990049;28;20193;-82
2023/02/04 09:04:38;;;;;;;14.77;2.83;;;6.20;99.90;;;;;;4991203;28;20065;-81
2023/02/04 09:07:03;;;;;;;14.20;2.65;;;6.10;99.90;;;;;;4991606;28;20054;-80
2023/02/04 09:09:29;;;;;;;12.43;2.95;;;6.20;99.90;;;;;;4975724;28;20223;-81
2023/02/04 09:11:55;;;;;;;12.45;3.38;;;6.20;99.90;;;;;;5007498;28;20046;-79
2023/02/04 09:14:21;;;;;;;14.88;2.63;;;6.30;99.90;;;;;;5004857;28;20042;-81
2023/02/04 09:16:47;;;;;;;14.23;3.17;;;6.30;99.90;;;;;;4997446;28;20534;-81
2023/02/04 09:19:15;;;;;;;12.30;2.92;;;6.30;99.90;;;;;;5004029;28;20045;-82
2023/02/04 09:21:41;;;;;;;13.93;3.17;;;6.30;99.90;;;;;;4989459;28;20042;-82
2023/02/04 09:24:07;;;;;;;16.70;3.42;;;6.30;99.90;;;;;;5015470;28;20123;-81
2023/02/04 09:26:36;;;;;;;15.63;2.83;;;6.30;99.90;;;;;;5001409;28;20131;-80
2023/02/04 09:29:01;;;;;;;11.73;2.78;;;6.30;99.90;;;;;;5018798;28;20046;-81
2023/02/04 09:31:27;;;;;;;11.23;2.70;;;6.30;99.90;;;;;;4992797;28;20041;-81
2023/02/04 09:33:53;;;;;;;11.90;3.15;;;6.20;99.90;;;;;;4964985;28;20503;-81
2023/02/04 09:36:19;;;;;;;12.13;2.83;;;6.20;99.90;;;;;;4987433;28;20045;-80
2023/02/04 09:38:45;;;;;;;9.55;2.53;;;6.20;99.90;;;;;;4974535;28;20160;-81
2023/02/04 09:41:12;;;;;;;12.68;2.63;;;6.30;99.90;;;;;;5012319;28;20610;-81
2023/02/04 09:43:43;;;;;;;13.05;2.47;;;6.30;99.90;;;;;;5011344;28;20621;-81
2023/02/04 09:46:22;;;;;;;11.60;2.60;;;6.30;99.90;;;;;;5017344;28;20081;-81
2023/02/04 09:48:49;;;;;;;13.25;3.30;;;6.30;99.90;;;;;;4993025;28;20056;-74
2023/02/04 09:51:21;;;;;;;15.80;3.00;;;6.30;99.90;;;;;;4998337;28;20068;-73
2023/02/04 09:53:47;;;;;;;11.48;2.47;;;6.40;99.90;;;;;;5029294;28;20090;-80
2023/02/04 11:41:43;;;;;;;8.82;2.13;;;7.50;99.90;;;;;;5052598;22;1395309;-84
2023/02/04 11:44:32;;;;;;;8.90;2.22;;;7.40;99.90;;;;;;5037467;28;20056;-84
2023/02/04 11:47:01;;;;;;;8.55;1.98;;;7.50;99.90;;;;;;5051560;28;20447;-81
2023/02/04 11:49:27;;;;;;;10.25;2.33;;;7.50;99.90;;;;;;5042619;28;20084;-82
2023/02/04 11:52:11;;;;;;;9.43;2.60;;;7.50;99.90;;;;;;5018486;28;20135;-80
2023/02/04 11:54:37;;;;;;;7.07;1.80;;;7.50;99.90;;;;;;5042915;28;20109;-81
2023/02/04 11:57:04;;;;;;;7.03;1.98;;;7.50;99.90;;;;;;5040546;28;20520;-74
2023/02/04 11:59:30;;;;;;;8.55;2.40;;;7.50;99.90;;;;;;5011985;28;20091;-74
2023/02/04 12:02:14;;;;;;;7.15;2.05;;;7.50;99.90;;;;;;5036544;28;20048;-75
2023/02/04 12:04:50;;;;;;;8.05;2.00;;;7.50;99.90;;;;;;5038258;28;20049;-74
2023/02/04 12:07:23;;;;;;;7.95;2.53;;;7.60;99.90;;;;;;5032203;28;20076;-81
2023/02/04 12:09:49;;;;;;;8.05;2.20;;;7.60;99.90;;;;;;5003310;28;20894;-81
2023/02/04 12:12:27;;;;;;;9.48;2.58;;;7.60;99.90;;;;;;5037754;28;20049;-80
2023/02/04 12:15:00;;;;;;;7.57;2.22;;;7.60;99.90;;;;;;5043869;28;21152;-80
2023/02/04 12:17:26;;;;;;;7.75;1.95;;;7.70;99.90;;;;;;5025827;28;20040;-80
2023/02/04 12:19:52;;;;;;;9.05;2.20;;;7.70;99.90;;;;;;5007914;28;20401;-81
2023/02/04 12:22:18;;;;;;;8.35;2.17;;;7.70;99.90;;;;;;5024193;28;20071;-80
2023/02/04 12:24:44;;;;;;;10.30;2.55;;;7.70;99.90;;;;;;5017174;28;20040;-80
2023/02/04 12:27:13;;;;;;;9.32;2.38;;;7.80;99.90;;;;;;5001964;28;20046;-81
2023/02/04 12:29:39;;;;;;;8.45;2.13;;;7.80;99.90;;;;;;5038632;28;20044;-81
2023/02/04 12:32:05;;;;;;;8.52;2.35;;;7.80;99.90;;;;;;5004992;28;20618;-81
2023/02/04 12:34:30;;;;;;;7.57;1.67;;;7.80;99.90;;;;;;5035520;28;20068;-81
2023/02/04 12:36:56;;;;;;;6.60;1.65;;;7.80;99.90;;;;;;5038978;28;20299;-81
2023/02/04 12:39:22;;;;;;;7.10;1.90;;;7.80;99.90;;;;;;5017611;28;20040;-81
2023/02/04 12:41:51;;;;;;;6.57;1.70;;;7.70;99.90;;;;;;5005694;28;20504;-84
2023/02/04 12:44:17;;;;;;;8.90;2.47;;;7.80;99.90;;;;;;5016870;28;20173;-81
2023/02/04 12:46:43;;;;;;;9.85;2.60;;;7.80;99.90;;;;;;5014178;28;20517;-80
2023/02/04 12:49:12;;;;;;;8.82;2.30;;;7.80;99.90;;;;;;5022976;28;20048;-81
2023/02/04 12:51:37;;;;;;;9.02;2.45;;;7.80;99.90;;;;;;5021684;28;20068;-81
2023/02/04 12:54:03;;;;;;;10.25;2.60;;;7.90;99.90;;;;;;4981181;28;20151;-81
2023/02/04 12:56:29;;;;;;;10.68;2.53;;;7.90;99.90;;;;;;5027774;28;20044;-82
2023/02/04 12:58:55;;;;;;;8.55;2.33;;;7.90;99.90;;;;;;5027689;28;20144;-81
2023/02/04 13:01:21;;;;;;;10.65;2.88;;;7.90;99.90;;;;;;4973796;28;20489;-82
2023/02/04 13:03:47;;;;;;;9.32;3.25;;;7.90;99.90;;;;;;4962709;28;20248;-82
2023/02/04 13:06:13;;;;;;;7.25;2.47;;;8.00;99.90;;;;;;4984774;28;20076;-81
2023/02/04 13:08:51;;;;;;;7.50;1.88;;;8.00;99.90;;;;;;4964655;28;20055;-81
2023/02/04 14:32:05;;;;;;;7.32;2.03;;;8.00;99.90;;;;;;4934337;27;2334626;-79
2023/02/04 14:34:31;;;;;;;6.68;2.00;;;8.00;99.90;;;;;;4977384;28;20454;-79
2023/02/04 14:37:12;;;;;;;6.75;1.90;;;7.90;99.90;;;;;;4978658;28;20048;-79
2023/02/04 14:39:38;;;;;;;7.13;2.40;;;7.90;99.90;;;;;;4979547;28;20044;-78
2023/02/04 14:42:07;;;;;;;5.20;1.65;;;7.90;99.90;;;;;;4959109;28;20173;-81
2023/02/04 14:44:32;;;;;;;5.60;1.95;;;7.90;99.90;;;;;;4965297;28;20323;-80
2023/02/04 14:46:58;;;;;;;7.78;1.80;;;7.90;99.90;;;;;;4964526;28;20693;-80
2023/02/04 14:49:24;;;;;;;5.72;2.17;;;7.90;99.90;;;;;;4963157;28;20531;-80
2023/02/04 14:51:56;;;;;;;8.52;2.17;;;7.90;99.90;;;;;;4944838;28;20692;-80
2023/02/04 14:54:22;;;;;;;6.15;2.22;;;7.90;99.90;;;;;;4978714;28;20479;-78
2023/02/04 14:56:49;;;;;;;5.85;1.75;;;7.90;99.90;;;;;;4959669;28;20045;-80
2023/02/04 14:59:15;;;;;;;6.03;2.17;;;7.90;99.90;;;;;;4959550;28;20140;-80
2023/02/04 15:01:44;;;;;;;8.57;2.10;;;7.80;99.90;;;;;;4978417;28;20996;-78
2023/02/04 15:04:10;;;;;;;5.43;1.88;;;7.80;99.90;;;;;;4979110;28;21199;-79
2023/02/04 15:06:45;;;;;;;7.35;2.10;;;7.80;99.90;;;;;;4948021;28;20049;-79
2023/02/04 15:09:11;;;;;;;7.90;2.03;;;7.80;99.90;;;;;;4977976;28;20127;-79
2023/02/04 15:11:40;;;;;;;6.88;2.63;;;7.80;99.90;;;;;;4978869;28;20343;-78
2023/02/04 15:14:07;;;;;;;6.55;2.00;;;7.80;99.90;;;;;;4994608;28;20048;-80
2023/02/04 15:16:33;;;;;;;9.18;2.42;;;7.80;99.90;;;;;;4994980;28;20514;-79
2023/02/04 15:18:58;;;;;;;6.25;2.03;;;7.70;99.90;;;;;;4977284;28;20327;-79
2023/02/04 15:21:30;;;;;;;5.25;1.70;;;7.70;99.90;;;;;;4994889;28;20041;-79
2023/02/04 15:23:56;;;;;;;9.25;2.35;;;7.70;99.90;;;;;;4964145;28;20132;-79
2023/02/04 15:26:25;;;;;;;7.30;2.25;;;7.70;99.90;;;;;;4979229;28;21115;-80
2023/02/04 15:28:51;;;;;;;7.30;2.50;;;7.70;99.90;;;;;;4975316;28;20932;-79
2023/02/04 15:31:20;;;;;;;7.20;1.92;;;7.60;99.90;;;;;;4952806;28;20369;-79
2023/02/04 15:33:46;;;;;;;6.78;2.20;;;7.50;99.90;;;;;;4964226;28;20052;-79
2023/02/04 15:36:14;;;;;;;7.65;2.15;;;7.50;99.90;;;;;;4949721;28;20049;-79
2023/02/04 15:41:29;;;;;;;8.18;2.10;;;7.40;99.90;;;;;;4964844;28;20179;-79
2023/02/04 15:43:55;;;;;;;6.38;1.85;;;7.40;99.90;;;;;;4951653;28;20056;-79
2023/02/04 15:46:23;;;;;;;6.07;1.80;;;7.40;99.90;;;;;;4932632;28;20171;-78
2023/02/04 15:48:49;;;;;;;6.53;1.98;;;7.20;99.90;;;;;;4948642;28;21058;-78
2023/02/04 15:51:16;;;;;;;5.70;1.92;;;7.20;99.90;;;;;;4968048;28;20053;-78
2023/02/04 15:53:41;;;;;;;6.68;1.90;;;7.10;99.90;;;;;;4951443;28;20133;-75
2023/02/04 15:56:07;;;;;;;7.78;1.67;;;7.10;99.90;;;;;;4937277;28;20225;-74